Terminal Aerodrome Forecast
Issued by NWS Mt. Holly, NJ

Current Version | Previous Version | Text Only | Print | Product List | Glossary On
Versions: 1 2 3 4 5 6 7 8 9 10 11 12 13 14 15 16 17 18 19 20 21
000
FTUS41 KPHI 050904 AAA
TAFRDG
TAF AMD
KRDG 050904Z 0509/0606 VRB02KT 6SM BR SCT025 BKN250
      TEMPO 0509/0512 3SM BR BKN025
     FM051300 VRB03KT P6SM SCT250
     FM051800 20005KT P6SM FEW050
     FM060000 VRB03KT P6SM BKN250=

USA.gov is the U.S. government's official web portal to all federal, state and local government web resources and services.